Flight Track Log - Related Links

Times and Time Zones

All times are in EDT time to prevent confusion due to time zone crossing. See the N682RW flight status page for this flight to view local times or setup timezone preferences in your user account.

Time Position Orientation Groundspeed Altitude Reporting Facility
EDT Latitude Longitude Course Direction KTS MPH feet Rate Location/Type
Thu 03:08:48 AM 49.1500 -123.0667 97° East 220 253 4,300  Level Vancouver Center
Thu 03:09:48 AM 49.1333 -122.9500 102° East 280 322 7,100 3,050 Climbing Vancouver Center
Thu 03:10:48 AM 49.1167 -122.8000 100° East 320 368 10,400 2,850 Climbing Vancouver Center
Thu 03:11:00 AM 49.1154 -122.0480 97° East  Level FlightAware Approximate
Thu 03:11:48 AM 49.0833 -122.6833 114° Southeast 360 414 12,800  Level Vancouver Center
Thu 03:12:00 AM 49.1028 -121.8861 97° East  Level FlightAware Approximate
Thu 03:12:48 AM 49.0667 -122.5000 98° East 370 426 15,700  Level Vancouver Center
Thu 03:13:00 AM 49.0814 -121.7267 97° East  Level FlightAware Approximate
Thu 03:13:48 AM 49.0667 -122.3500 90° East 400 460 17,600  Level Vancouver Center
Thu 03:14:00 AM 49.0679 -121.5650 97° East  Level FlightAware Approximate
Thu 03:14:48 AM 49.0667 -122.1500 90° East 440 506 19,500  Level Vancouver Center
Thu 03:15:48 AM 49.0500 -121.9667 98° East 460 529 21,600 2,150 Climbing Vancouver Center
Thu 03:16:48 AM 49.0667 -121.7667 83° East 470 541 23,800 1,850 Climbing Vancouver Center
Thu 03:17:48 AM 49.0833 -121.5333 84° East 480 552 25,300 1,450 Climbing Vancouver Center
Thu 03:18:48 AM 49.0833 -121.3333 90° East 500 575 26,700 1,450 Climbing Vancouver Center
Thu 03:19:48 AM 49.0833 -121.1000 90° East 520 598 28,200 1,500 Climbing Vancouver Center
Thu 03:20:48 AM 49.0833 -120.9000 90° East 530 610 29,700 1,500 Climbing Vancouver Center
Thu 03:21:48 AM 49.1000 -120.6333 84° East 540 621 31,200 1,300 Climbing Vancouver Center
Thu 03:22:48 AM 49.1333 -120.4500 74° East 530 610 32,300 1,300 Climbing Vancouver Center
Thu 03:23:48 AM 49.2000 -120.2500 63° Northeast 500 575 33,800 1,250 Climbing Vancouver Center
Thu 03:24:48 AM 49.2667 -120.0667 61° Northeast 500 575 34,800 600 Climbing Vancouver Center
Thu 03:25:48 AM 49.3000 -119.8500 77° East 490 564 35,000 100 Climbing Vancouver Center
Thu 03:26:48 AM 49.3667 -119.6667 61° Northeast 500 575 35,000  Level Vancouver Center
Thu 03:27:48 AM 49.4167 -119.4833 67° East 500 575 35,000  Level Vancouver Center
Thu 03:28:48 AM 49.4833 -119.2833 63° Northeast 500 575 35,000  Level Vancouver Center
Thu 03:29:48 AM 49.5333 -119.0833 69° East 500 575 35,000  Level Vancouver Center
Thu 03:30:48 AM 49.6000 -118.9000 61° Northeast 500 575 35,000  Level Vancouver Center
Thu 03:31:48 AM 49.6333 -118.7000 75° East 500 575 35,000  Level Vancouver Center
Thu 03:33:47 AM 49.7333 -118.3667 65° Northeast 500 575 35,000  Level Edmonton Center
Thu 03:34:47 AM 49.8000 -118.1667 63° Northeast 500 575 35,000  Level Edmonton Center
Thu 03:35:47 AM 49.8500 -117.9667 69° East 500 575 35,000  Level Edmonton Center
Thu 03:36:47 AM 49.9167 -117.7500 64° Northeast 490 564 35,000  Level Edmonton Center
Thu 03:37:47 AM 49.9500 -117.5833 73° East 490 564 35,000  Level Edmonton Center
Thu 03:38:47 AM 50.0000 -117.3833 69° East 490 564 35,000  Level Edmonton Center
Thu 03:39:47 AM 50.0667 -117.1833 62° Northeast 490 564 35,000  Level Edmonton Center
Thu 03:40:47 AM 50.1167 -116.9667 70° East 490 564 35,000  Level Edmonton Center
Thu 03:41:47 AM 50.1500 -116.7833 74° East 490 564 35,000  Level Edmonton Center
Thu 03:42:47 AM 50.2167 -116.5833 62° Northeast 490 564 35,000  Level Edmonton Center
Thu 03:43:47 AM 50.2667 -116.3833 69° East 490 564 35,000 -1,250 Level Edmonton Center
Thu 03:44:47 AM 50.3000 -116.1833 75° East 490 564 32,500 -3,000 Descending Edmonton Center
Thu 03:45:47 AM 50.4000 -116.0167 47° Northeast 470 541 29,000 -2,550 Descending Edmonton Center
Thu 03:46:47 AM 50.4833 -115.8500 52° Northeast 460 529 27,400 -2,150 Descending Edmonton Center
Thu 03:47:47 AM 50.5500 -115.7167 52° Northeast 440 506 24,700 -2,500 Descending Edmonton Center
Thu 03:48:47 AM 50.6167 -115.5667 55° Northeast 420 483 22,400 -2,000 Descending Edmonton Center
Thu 03:49:47 AM 50.6833 -115.4333 52° Northeast 410 472 20,700 -1,900 Descending Edmonton Center
Thu 03:50:47 AM 50.7500 -115.2833 55° Northeast 390 449 18,600 -2,350 Descending Edmonton Center
Thu 03:51:47 AM 50.8167 -115.1667 48° Northeast 380 437 16,000 -1,800 Descending Edmonton Center
Thu 03:52:47 AM 50.8833 -115.0167 55° Northeast 380 437 15,000 -500 Descending Edmonton Center
Thu 03:53:47 AM 50.9500 -114.9000 48° Northeast 350 403 15,000  Level Edmonton Center
Thu 03:54:47 AM 51.0000 -114.8000 52° Northeast 310 357 15,000 -450 Level Edmonton Center
Thu 03:55:47 AM 51.0500 -114.6667 59° Northeast 310 357 14,100 -1,250 Descending Edmonton Center
Thu 03:56:47 AM 51.0833 -114.5833 57° Northeast 310 357 12,500 -1,700 Descending Edmonton Center
Thu 03:57:47 AM 51.1500 -114.4500 51° Northeast 290 334 10,700 -1,600 Descending Edmonton Center
Thu 03:58:47 AM 51.1833 -114.3500 62° Northeast 260 299 9,300 -1,300 Descending Edmonton Center
Thu 03:59:47 AM 51.2167 -114.2833 51° Northeast 210 242 8,100 -1,300 Descending Edmonton Center
Thu 04:00:47 AM 51.2333 -114.2000 72° East 200 230 6,700 -1,050 Descending Edmonton Center
Thu 04:01:47 AM 51.2500 -114.1000 75° East 210 242 6,000 -400 Descending Edmonton Center
Thu 04:02:47 AM 51.2167 -114.0333 129° Southeast 180 207 5,900 -450 Descending Edmonton Center
Thu 04:03:47 AM 51.1833 -114.0500 197° South 160 184 5,100 -800 Descending Edmonton Center
Thu 04:04:47 AM 51.1333 -114.0500 180° South 140 161 4,300 -750 Descending Edmonton Center
Thu 04:05:47 AM 51.1000 -114.0333 163° South 140 161 3,600 -700 Descending Edmonton Center
Thu 04:07:00 AM 51.1000 -114.0167 129° Southeast  Level FlightAware Approximate

Login

Don't have an account? Register now (free) for customized features, flight alerts, and more!